createdAt,value
2019-04-25T00:03:22.735Z,0.60
2019-04-25T00:07:42.716Z,0.70
2019-04-25T00:12:02.372Z,0.60
2019-04-25T00:16:22.565Z,0.67
2019-04-25T00:20:44.949Z,0.60
2019-04-25T00:25:18.010Z,0.60
2019-04-25T00:29:36.064Z,0.70
2019-04-25T00:33:54.598Z,0.63
2019-04-25T00:38:13.156Z,0.70
2019-04-25T00:42:31.992Z,0.60
2019-04-25T00:46:56.165Z,0.70
2019-04-25T00:51:11.923Z,0.60
2019-04-25T00:55:31.886Z,0.80
2019-04-25T01:00:12.360Z,0.70
2019-04-25T01:04:33.607Z,0.70
2019-04-25T01:08:54.563Z,0.70
2019-04-25T01:13:12.394Z,0.60
2019-04-25T01:17:31.546Z,0.70
2019-04-25T01:21:51.197Z,0.70
2019-04-25T01:26:09.886Z,0.70
2019-04-25T01:30:28.586Z,0.70
2019-04-25T01:35:08.714Z,0.67
2019-04-25T01:39:47.450Z,0.60
2019-04-25T01:44:18.510Z,0.70
2019-04-25T01:48:36.915Z,0.67
2019-04-25T01:52:55.663Z,0.70
2019-04-25T01:57:14.906Z,0.70
2019-04-25T02:01:35.543Z,0.80
2019-04-25T02:05:55.199Z,0.80
2019-04-25T02:10:15.403Z,0.80
2019-04-25T02:14:34.290Z,0.80
2019-04-25T02:18:55.066Z,0.70
2019-04-25T02:23:14.119Z,0.70
2019-04-25T02:27:34.202Z,0.80
2019-04-25T02:31:58.531Z,0.77
2019-04-25T02:36:15.255Z,0.73
2019-04-25T02:40:33.880Z,0.70
2019-04-25T02:45:02.168Z,0.70
2019-04-25T02:49:49.154Z,0.70
2019-04-25T02:54:08.172Z,0.70
2019-04-25T02:58:26.533Z,0.80
2019-04-25T03:02:45.000Z,0.80
2019-04-25T03:07:07.421Z,0.70
2019-04-25T03:11:24.493Z,0.70
2019-04-25T03:15:44.270Z,0.80
2019-04-25T03:20:24.228Z,0.80
2019-04-25T03:24:41.785Z,0.70
2019-04-25T03:29:01.177Z,0.70
2019-04-25T03:33:20.101Z,0.70
2019-04-25T03:37:38.818Z,1.00
2019-04-25T03:41:57.285Z,0.87
2019-04-25T03:46:16.340Z,0.70
2019-04-25T03:50:36.379Z,0.70
2019-04-25T03:54:56.752Z,0.90
2019-04-25T03:59:16.096Z,0.60
2019-04-25T04:03:35.130Z,0.63
2019-04-25T04:07:53.850Z,0.70
2019-04-25T04:12:12.429Z,0.70
2019-04-25T04:16:35.367Z,0.83
2019-04-25T04:21:16.238Z,0.70
2019-04-25T04:25:37.989Z,0.70
2019-04-25T04:29:56.671Z,0.80
2019-04-25T04:34:15.620Z,0.70
2019-04-25T04:38:35.669Z,0.70
2019-04-25T04:42:54.091Z,0.70
2019-04-25T04:47:14.078Z,0.70
2019-04-25T04:51:33.565Z,0.80
2019-04-25T04:55:52.409Z,0.70
2019-04-25T05:00:12.782Z,0.70
2019-04-25T05:04:43.502Z,0.80
2019-04-25T05:09:15.526Z,1.00
2019-04-25T05:13:34.991Z,1.03
2019-04-25T05:17:54.346Z,0.90
2019-04-25T05:22:14.820Z,1.10
2019-04-25T05:26:34.134Z,1.30
2019-04-25T05:30:59.150Z,1.50
2019-04-25T05:35:19.769Z,1.27
2019-04-25T05:39:38.378Z,1.30
2019-04-25T05:43:56.651Z,1.47
2019-04-25T05:48:16.023Z,1.60
2019-04-25T05:52:35.424Z,1.47
2019-04-25T05:56:53.915Z,1.07
2019-04-25T06:01:13.403Z,1.00
2019-04-25T06:05:33.604Z,1.03
2019-04-25T06:10:04.699Z,1.03
2019-04-25T06:14:24.029Z,1.10
2019-04-25T06:19:13.771Z,1.20
2019-04-25T06:23:56.842Z,1.30
2019-04-25T06:28:17.325Z,1.07
2019-04-25T06:32:35.629Z,1.10
2019-04-25T06:36:54.447Z,1.20
2019-04-25T06:41:13.560Z,1.30
2019-04-25T06:45:55.442Z,1.00
2019-04-25T06:50:15.930Z,0.90
2019-04-25T06:54:35.252Z,1.00
2019-04-25T06:58:54.985Z,0.80
2019-04-25T07:03:15.672Z,0.90
2019-04-25T07:07:35.212Z,1.00
2019-04-25T07:11:54.430Z,1.00
2019-04-25T07:16:14.388Z,0.70
2019-04-25T07:20:34.563Z,0.70
2019-04-25T07:24:53.998Z,0.70
2019-04-25T07:29:26.907Z,0.70
2019-04-25T07:33:53.495Z,0.60
2019-04-25T07:38:14.074Z,0.60
2019-04-25T07:42:35.444Z,0.60
2019-04-25T07:46:55.843Z,0.60
2019-04-25T07:51:16.560Z,0.70
2019-04-25T07:55:38.728Z,0.70
2019-04-25T07:59:57.028Z,0.90
2019-04-25T08:04:15.687Z,0.77
2019-04-25T08:08:54.457Z,0.70
2019-04-25T08:13:25.181Z,0.80
2019-04-25T08:18:14.310Z,0.70
2019-04-25T08:22:52.965Z,0.70
2019-04-25T08:27:13.205Z,0.80
2019-04-25T08:31:39.902Z,0.70
2019-04-25T08:36:09.417Z,0.70
2019-04-25T08:40:55.734Z,0.60
2019-04-25T08:45:40.209Z,0.70
2019-04-25T08:50:29.434Z,0.60
2019-04-25T08:55:16.420Z,0.70
2019-04-25T09:00:15.019Z,0.70
2019-04-25T09:05:00.907Z,0.70
2019-04-25T09:09:36.730Z,0.70
2019-04-25T09:14:16.450Z,0.70
2019-04-25T09:18:41.245Z,0.70
2019-04-25T09:23:01.050Z,0.70
2019-04-25T09:27:23.353Z,0.70
2019-04-25T09:31:45.130Z,0.70
2019-04-25T09:36:17.978Z,0.73
2019-04-25T09:40:44.202Z,0.70
2019-04-25T09:45:20.929Z,0.50
2019-04-25T09:49:41.586Z,0.60
2019-04-25T09:54:23.770Z,0.80
2019-04-25T09:58:54.309Z,0.80
2019-04-25T10:03:13.782Z,0.70
2019-04-25T10:07:33.469Z,0.80
2019-04-25T10:11:54.684Z,0.70
2019-04-25T10:16:15.276Z,0.70
2019-04-25T10:20:34.795Z,0.67
2019-04-25T10:25:00.364Z,0.70
2019-04-25T10:29:16.399Z,0.70
2019-04-25T10:33:36.501Z,0.70
2019-04-25T10:37:55.605Z,0.73
2019-04-25T10:42:15.349Z,0.70
2019-04-25T10:46:34.979Z,0.60
2019-04-25T10:50:55.716Z,0.60
2019-04-25T10:55:27.630Z,0.70
2019-04-25T11:00:01.189Z,0.70
2019-04-25T11:04:26.218Z,0.70
2019-04-25T11:08:49.143Z,0.70
2019-04-25T11:13:14.359Z,0.70
2019-04-25T11:17:34.485Z,0.67
2019-04-25T11:21:55.261Z,0.77
2019-04-25T11:26:16.640Z,0.63
2019-04-25T11:30:35.885Z,0.60
2019-04-25T11:34:55.778Z,0.70
2019-04-25T11:39:35.430Z,0.63
2019-04-25T11:43:56.733Z,0.60
2019-04-25T11:48:16.675Z,0.60
2019-04-25T11:52:35.966Z,0.50
2019-04-25T11:56:56.482Z,0.60
2019-04-25T12:01:17.668Z,0.60
2019-04-25T12:05:38.398Z,0.60
2019-04-25T12:09:58.711Z,0.60
2019-04-25T12:14:18.323Z,0.60
2019-04-25T12:18:38.624Z,0.60
2019-04-25T12:23:08.397Z,0.60
2019-04-25T12:27:27.953Z,0.60
2019-04-25T12:31:47.682Z,0.60
2019-04-25T12:36:11.679Z,0.67
2019-04-25T12:40:31.167Z,0.60
2019-04-25T12:45:21.904Z,0.60
2019-04-25T12:49:41.327Z,0.60
2019-04-25T12:54:01.805Z,0.70
2019-04-25T12:58:23.469Z,0.70
2019-04-25T13:02:44.718Z,0.50
2019-04-25T13:07:05.362Z,0.50
2019-04-25T13:11:26.443Z,0.60
2019-04-25T13:15:46.920Z,0.57
2019-04-25T13:20:07.651Z,0.60
2019-04-25T13:24:27.295Z,0.70
2019-04-25T13:29:06.803Z,0.60
2019-04-25T13:33:48.704Z,0.60
2019-04-25T13:38:11.620Z,0.70
2019-04-25T13:42:30.956Z,0.60
2019-04-25T13:46:49.800Z,0.80
2019-04-25T13:51:09.235Z,0.50
2019-04-25T13:55:30.085Z,0.67
2019-04-25T13:59:49.313Z,0.80
2019-04-25T14:04:09.327Z,0.60
2019-04-25T14:08:30.381Z,0.60
2019-04-25T14:12:53.667Z,0.57
2019-04-25T14:17:38.139Z,0.60
2019-04-25T14:22:00.051Z,0.50
2019-04-25T14:26:27.104Z,0.70
2019-04-25T14:30:46.097Z,0.60
2019-04-25T14:35:07.644Z,0.57
2019-04-25T14:39:27.487Z,0.80
2019-04-25T14:43:46.512Z,0.60
2019-04-25T14:48:05.748Z,0.60
2019-04-25T14:52:24.531Z,0.60
2019-04-25T14:57:05.857Z,0.60
2019-04-25T15:01:26.055Z,0.60
2019-04-25T15:05:45.833Z,0.50
2019-04-25T15:10:04.601Z,0.60
2019-04-25T15:14:23.657Z,0.70
2019-04-25T15:18:46.852Z,0.60
2019-04-25T15:23:03.392Z,0.60
2019-04-25T15:27:22.523Z,0.70
2019-04-25T15:31:55.180Z,0.60
2019-04-25T15:36:25.137Z,0.60
2019-04-25T15:40:50.160Z,0.60
2019-04-25T15:45:29.082Z,0.60
2019-04-25T15:49:48.035Z,0.60
2019-04-25T15:54:06.635Z,0.60
2019-04-25T15:58:25.286Z,0.60
2019-04-25T16:02:44.957Z,0.60
2019-04-25T16:07:03.929Z,0.60
2019-04-25T16:11:22.565Z,0.60
2019-04-25T16:15:42.189Z,0.70
2019-04-25T16:20:00.337Z,0.70
2019-04-25T16:24:19.433Z,0.70
2019-04-25T16:28:39.026Z,0.60
2019-04-25T16:32:58.318Z,0.70
2019-04-25T16:37:18.365Z,0.60
2019-04-25T16:41:39.951Z,0.73
2019-04-25T16:45:57.841Z,0.60
2019-04-25T16:50:17.320Z,0.60
2019-04-25T16:54:36.660Z,0.60
2019-04-25T16:58:56.645Z,0.60
2019-04-25T17:03:17.428Z,0.80
2019-04-25T17:07:36.610Z,0.90
2019-04-25T17:11:58.792Z,0.70
2019-04-25T17:16:35.155Z,0.67
2019-04-25T17:21:08.411Z,0.50
2019-04-25T17:25:26.176Z,0.77
2019-04-25T17:29:44.653Z,0.70
2019-04-25T17:34:27.279Z,0.70
2019-04-25T17:38:58.001Z,0.67
2019-04-25T17:43:22.511Z,0.67
2019-04-25T17:47:52.344Z,0.60
2019-04-25T17:52:05.158Z,0.60
2019-04-25T17:56:26.155Z,0.70
2019-04-25T18:00:52.645Z,0.70
2019-04-25T18:05:11.201Z,0.70
2019-04-25T18:09:30.183Z,0.70
2019-04-25T18:13:49.918Z,0.90
2019-04-25T18:18:17.507Z,1.30
2019-04-25T18:22:58.390Z,1.20
2019-04-25T18:27:36.667Z,1.10
2019-04-25T18:31:56.471Z,1.40
2019-04-25T18:36:24.924Z,1.10
2019-04-25T18:41:05.794Z,0.97
2019-04-25T18:45:28.829Z,0.90
2019-04-25T18:49:47.542Z,1.00
2019-04-25T18:54:13.377Z,0.90
2019-04-25T18:58:49.022Z,1.10
2019-04-25T19:03:22.943Z,1.20
2019-04-25T19:07:40.950Z,1.13
2019-04-25T19:11:59.425Z,1.13
2019-04-25T19:16:18.275Z,0.90
2019-04-25T19:20:36.984Z,1.20
2019-04-25T19:24:55.321Z,1.00
2019-04-25T19:29:14.384Z,1.10
2019-04-25T19:33:36.019Z,0.90
2019-04-25T19:37:56.739Z,1.00
2019-04-25T19:42:25.485Z,0.80
2019-04-25T19:46:51.358Z,0.87
2019-04-25T19:51:10.323Z,0.90
2019-04-25T19:55:30.547Z,0.90
2019-04-25T19:59:50.693Z,1.07
2019-04-25T20:04:18.565Z,0.97
2019-04-25T20:08:44.896Z,0.80
2019-04-25T20:13:04.042Z,0.90
2019-04-25T20:17:23.039Z,0.80
2019-04-25T20:21:41.797Z,0.70
2019-04-25T20:26:00.436Z,1.10
2019-04-25T20:30:19.651Z,0.70
2019-04-25T20:34:37.953Z,0.80
2019-04-25T20:38:56.810Z,0.63
2019-04-25T20:43:15.148Z,0.70
2019-04-25T20:47:34.308Z,0.80
2019-04-25T20:51:52.827Z,0.77
2019-04-25T20:56:12.896Z,0.77
2019-04-25T21:00:48.105Z,0.70
2019-04-25T21:05:08.707Z,0.80
2019-04-25T21:09:27.392Z,0.83
2019-04-25T21:14:03.389Z,0.80
2019-04-25T21:18:29.393Z,0.70
2019-04-25T21:22:47.552Z,0.87
2019-04-25T21:27:06.151Z,0.80
2019-04-25T21:31:24.842Z,0.90
2019-04-25T21:35:43.165Z,0.80
2019-04-25T21:40:09.973Z,1.00
2019-04-25T21:44:29.617Z,0.90
2019-04-25T21:48:47.952Z,0.90
2019-04-25T21:53:06.290Z,0.90
2019-04-25T21:57:25.207Z,1.00
2019-04-25T22:01:44.303Z,0.80
2019-04-25T22:06:03.561Z,0.70
2019-04-25T22:10:21.889Z,0.80
2019-04-25T22:14:40.468Z,0.70
2019-04-25T22:18:59.870Z,0.83
2019-04-25T22:23:18.629Z,0.80
2019-04-25T22:27:37.405Z,0.90
2019-04-25T22:32:17.422Z,0.90
2019-04-25T22:36:36.547Z,0.80
2019-04-25T22:40:55.218Z,0.80
2019-04-25T22:45:13.961Z,0.80
2019-04-25T22:49:32.327Z,0.93
2019-04-25T22:53:50.898Z,0.90
2019-04-25T22:58:09.870Z,0.93
2019-04-25T23:02:53.093Z,0.87
2019-04-25T23:07:13.136Z,0.90
2019-04-25T23:11:31.355Z,1.00
2019-04-25T23:15:49.868Z,0.90
2019-04-25T23:20:09.588Z,0.90
2019-04-25T23:24:32.078Z,0.90
2019-04-25T23:28:52.510Z,0.93
2019-04-25T23:33:10.734Z,0.90
2019-04-25T23:37:29.410Z,0.90
2019-04-25T23:41:47.786Z,0.80
2019-04-25T23:46:07.299Z,0.90
2019-04-25T23:50:26.082Z,1.00
2019-04-25T23:54:45.255Z,0.70
2019-04-25T23:59:04.209Z,0.70
